createdAt,value
2023-01-28T00:01:17.307Z,103024.31
2023-01-28T00:03:44.031Z,103024.13
2023-01-28T00:06:13.537Z,103023.31
2023-01-28T00:08:40.720Z,103021.31
2023-01-28T00:11:08.170Z,103020.50
2023-01-28T00:13:34.898Z,103020.28
2023-01-28T00:16:04.969Z,103026.00
2023-01-28T00:18:32.510Z,103028.13
2023-01-28T00:21:03.830Z,103021.31
2023-01-28T00:23:32.836Z,103025.88
2023-01-28T00:26:00.487Z,103032.88
2023-01-28T00:28:27.272Z,103029.13
2023-01-28T00:30:53.821Z,103029.13
2023-01-28T00:33:20.399Z,103032.13
2023-01-28T00:35:47.477Z,103043.41
2023-01-28T00:38:14.013Z,103038.03
2023-01-28T00:40:40.449Z,103035.69
2023-01-28T00:43:06.918Z,103049.13
2023-01-28T00:45:33.399Z,103046.63
2023-01-28T00:47:59.944Z,103042.63
2023-01-28T00:50:26.435Z,103039.06
2023-01-28T00:52:52.906Z,103041.44
2023-01-28T00:55:19.991Z,103042.50
2023-01-28T00:57:46.433Z,103037.72
2023-01-28T01:00:13.156Z,103032.81
2023-01-28T01:02:41.755Z,103036.63
2023-01-28T01:05:08.808Z,103043.91
2023-01-28T01:07:41.961Z,103035.94
2023-01-28T01:10:11.321Z,103042.72
2023-01-28T01:12:38.999Z,103037.56
2023-01-28T01:15:10.302Z,103030.88
2023-01-28T01:17:41.901Z,103026.50
2023-01-28T01:20:13.265Z,103025.13
2023-01-28T01:22:39.788Z,103046.44
2023-01-28T01:25:06.759Z,103031.69
2023-01-28T01:27:33.362Z,103037.00
2023-01-28T01:29:59.884Z,103043.38
2023-01-28T01:32:30.821Z,103047.13
2023-01-28T01:34:58.046Z,103036.13
2023-01-28T01:37:24.507Z,103030.19
2023-01-28T01:39:51.035Z,103029.06
2023-01-28T01:42:17.532Z,103037.75
2023-01-28T01:45:22.391Z,103035.69
2023-01-28T01:48:02.098Z,103044.25
2023-01-28T01:50:40.172Z,103041.81
2023-01-28T01:53:14.097Z,103048.19
2023-01-28T01:55:44.819Z,103046.94
2023-01-28T01:58:17.236Z,103049.31
2023-01-28T02:00:43.984Z,103054.44
2023-01-28T02:03:11.596Z,103055.25
2023-01-28T02:05:39.496Z,103049.38
2023-01-28T02:08:21.512Z,103055.25
2023-01-28T02:11:09.320Z,103053.13
2023-01-28T02:13:41.289Z,103056.38
2023-01-28T02:16:09.513Z,103052.81
2023-01-28T02:18:36.161Z,103054.38
2023-01-28T02:21:40.069Z,103048.69
2023-01-28T02:24:34.762Z,103044.56
2023-01-28T02:27:16.199Z,103047.97
2023-01-28T02:29:54.446Z,103043.91
2023-01-28T02:32:29.427Z,103052.31
2023-01-28T02:35:10.278Z,103055.81
2023-01-28T02:38:11.421Z,103051.13
2023-01-28T02:41:00.753Z,103051.94
2023-01-28T02:43:31.413Z,103055.44
2023-01-28T02:46:17.371Z,103047.06
2023-01-28T02:48:44.063Z,103044.03
2023-01-28T02:51:21.896Z,103054.13
2023-01-28T02:53:59.556Z,103055.81
2023-01-28T02:56:36.273Z,103049.56
2023-01-28T02:59:34.006Z,103050.06
2023-01-28T03:02:12.398Z,103052.75
2023-01-28T03:04:48.157Z,103064.72
2023-01-28T03:07:17.460Z,103060.81
2023-01-28T03:09:46.858Z,103059.81
2023-01-28T03:12:37.946Z,103063.44
2023-01-28T03:15:32.972Z,103049.28
2023-01-28T03:18:43.008Z,103039.31
2023-01-28T03:21:32.358Z,103047.66
2023-01-28T03:24:30.191Z,103044.31
2023-01-28T03:27:24.995Z,103046.72
2023-01-28T03:30:15.232Z,103048.06
2023-01-28T03:33:02.120Z,103043.66
2023-01-28T03:35:51.601Z,103052.53
2023-01-28T03:38:23.221Z,103042.94
2023-01-28T03:40:50.967Z,103046.94
2023-01-28T03:43:17.534Z,103055.72
2023-01-28T03:45:43.964Z,103054.66
2023-01-28T03:48:10.465Z,103047.97
2023-01-28T03:50:37.035Z,103049.94
2023-01-28T03:53:14.972Z,103047.50
2023-01-28T03:55:43.123Z,103053.94
2023-01-28T03:58:10.740Z,103055.22
2023-01-28T04:00:42.135Z,103056.53
2023-01-28T04:03:19.696Z,103060.19
2023-01-28T04:06:01.485Z,103057.84
2023-01-28T04:08:28.533Z,103057.19
2023-01-28T04:10:56.289Z,103054.25
2023-01-28T04:13:23.019Z,103057.91
2023-01-28T04:15:49.802Z,103059.78
2023-01-28T04:18:16.398Z,103057.59
2023-01-28T04:20:42.928Z,103058.72
2023-01-28T04:23:09.756Z,103072.66
2023-01-28T04:25:36.204Z,103060.59
2023-01-28T04:28:02.835Z,103066.56
2023-01-28T04:30:29.396Z,103066.03
2023-01-28T04:32:55.877Z,103066.84
2023-01-28T04:35:22.331Z,103063.78
2023-01-28T04:37:48.748Z,103076.97
2023-01-28T04:40:15.324Z,103077.72
2023-01-28T04:42:41.862Z,103085.53
2023-01-28T04:45:08.930Z,103091.53
2023-01-28T04:47:35.433Z,103083.47
2023-01-28T04:50:01.933Z,103091.41
2023-01-28T04:52:28.390Z,103095.88
2023-01-28T04:54:54.873Z,103086.34
2023-01-28T04:57:21.370Z,103081.78
2023-01-28T04:59:47.836Z,103082.13
2023-01-28T05:02:14.315Z,103073.88
2023-01-28T05:04:40.831Z,103078.38
2023-01-28T05:07:07.279Z,103080.25
2023-01-28T05:09:33.767Z,103076.19
2023-01-28T05:12:00.269Z,103069.69
2023-01-28T05:14:26.826Z,103062.50
2023-01-28T05:16:53.269Z,103073.50
2023-01-28T05:19:19.827Z,103078.03
2023-01-28T05:21:46.469Z,103074.88
2023-01-28T05:24:13.010Z,103066.50
2023-01-28T05:26:39.566Z,103069.19
2023-01-28T05:29:06.084Z,103060.31
2023-01-28T05:31:32.644Z,103067.25
2023-01-28T05:33:59.377Z,103072.03
2023-01-28T05:36:26.127Z,103072.38
2023-01-28T05:38:52.626Z,103072.94
2023-01-28T05:41:19.080Z,103071.88
2023-01-28T05:43:45.558Z,103066.75
2023-01-28T05:46:12.029Z,103071.97
2023-01-28T05:48:38.598Z,103072.44
2023-01-28T05:51:06.032Z,103071.41
2023-01-28T05:53:32.606Z,103084.91
2023-01-28T05:55:59.133Z,103082.22
2023-01-28T05:58:27.524Z,103082.63
2023-01-28T06:00:56.437Z,103072.88
2023-01-28T06:03:23.142Z,103065.28
2023-01-28T06:05:49.574Z,103076.38
2023-01-28T06:08:16.031Z,103067.97
2023-01-28T06:10:42.720Z,103075.56
2023-01-28T06:13:09.189Z,103083.03
2023-01-28T06:15:35.737Z,103076.94
2023-01-28T06:18:02.304Z,103077.44
2023-01-28T06:20:28.987Z,103076.94
2023-01-28T06:22:55.488Z,103076.03
2023-01-28T06:25:22.014Z,103081.75
2023-01-28T06:27:48.542Z,103084.19
2023-01-28T06:30:15.504Z,103076.53
2023-01-28T06:32:42.158Z,103076.28
2023-01-28T06:35:08.913Z,103077.19
2023-01-28T06:37:35.430Z,103073.59
2023-01-28T06:40:02.849Z,103070.25
2023-01-28T06:42:29.298Z,103079.13
2023-01-28T06:44:55.767Z,103078.31
2023-01-28T06:47:22.231Z,103083.91
2023-01-28T06:49:48.736Z,103084.41
2023-01-28T06:52:15.185Z,103092.06
2023-01-28T06:54:41.671Z,103094.81
2023-01-28T06:57:08.121Z,103095.53
2023-01-28T06:59:34.780Z,103101.13
2023-01-28T07:02:01.204Z,103104.81
2023-01-28T07:04:27.670Z,103112.78
2023-01-28T07:06:54.135Z,103118.50
2023-01-28T07:09:20.743Z,103118.00
2023-01-28T07:11:47.210Z,103114.81
2023-01-28T07:14:13.676Z,103114.50
2023-01-28T07:16:40.148Z,103113.84
2023-01-28T07:19:06.610Z,103121.84
2023-01-28T07:21:33.107Z,103122.03
2023-01-28T07:23:59.607Z,103121.47
2023-01-28T07:26:26.145Z,103116.78
2023-01-28T07:28:52.615Z,103122.47
2023-01-28T07:31:19.234Z,103121.75
2023-01-28T07:33:45.858Z,103125.38
2023-01-28T07:36:12.328Z,103128.75
2023-01-28T07:38:38.778Z,103128.25
2023-01-28T07:41:05.501Z,103126.56
2023-01-28T07:43:31.974Z,103125.75
2023-01-28T07:46:01.683Z,103135.66
2023-01-28T07:48:28.201Z,103136.38
2023-01-28T07:50:58.739Z,103147.22
2023-01-28T07:53:25.361Z,103140.91
2023-01-28T07:55:51.905Z,103155.97
2023-01-28T07:58:18.439Z,103157.97
2023-01-28T08:00:45.002Z,103160.78
2023-01-28T08:03:16.433Z,103157.03
2023-01-28T08:05:49.574Z,103152.31
2023-01-28T08:08:17.067Z,103147.84
2023-01-28T08:10:44.308Z,103149.41
2023-01-28T08:13:11.887Z,103158.00
2023-01-28T08:15:38.955Z,103162.25
2023-01-28T08:18:06.717Z,103164.38
2023-01-28T08:20:33.318Z,103160.41
2023-01-28T08:23:12.313Z,103167.66
2023-01-28T08:25:38.952Z,103172.81
2023-01-28T08:28:06.659Z,103173.50
2023-01-28T08:30:34.113Z,103181.88
2023-01-28T08:33:00.880Z,103182.81
2023-01-28T08:35:28.384Z,103189.38
2023-01-28T08:37:55.021Z,103179.44
2023-01-28T08:40:21.881Z,103177.56
2023-01-28T08:42:52.962Z,103182.38
2023-01-28T08:45:27.671Z,103177.38
2023-01-28T08:47:58.429Z,103188.16
2023-01-28T08:50:28.219Z,103191.28
2023-01-28T08:52:57.119Z,103182.75
2023-01-28T08:55:24.128Z,103179.50
2023-01-28T08:57:50.644Z,103180.16
2023-01-28T09:00:17.833Z,103194.38
2023-01-28T09:02:44.443Z,103203.19
2023-01-28T09:05:11.189Z,103203.63
2023-01-28T09:07:38.793Z,103202.13
2023-01-28T09:10:06.432Z,103201.78
2023-01-28T09:12:33.368Z,103211.25
2023-01-28T09:14:59.859Z,103211.66
2023-01-28T09:17:26.342Z,103219.22
2023-01-28T09:19:52.928Z,103216.78
2023-01-28T09:22:19.476Z,103217.09
2023-01-28T09:24:45.950Z,103212.03
2023-01-28T09:27:12.531Z,103220.75
2023-01-28T09:29:39.081Z,103216.41
2023-01-28T09:32:09.546Z,103206.41
2023-01-28T09:34:36.192Z,103213.41
2023-01-28T09:37:02.700Z,103215.94
2023-01-28T09:39:29.179Z,103213.81
2023-01-28T09:42:13.840Z,103225.94
2023-01-28T09:44:43.015Z,103231.25
2023-01-28T09:47:20.797Z,103226.19
2023-01-28T09:49:50.811Z,103224.72
2023-01-28T09:52:21.712Z,103232.06
2023-01-28T09:55:07.332Z,103228.16
2023-01-28T09:57:55.585Z,103232.72
2023-01-28T10:00:35.158Z,103235.47
2023-01-28T10:03:08.685Z,103237.66
2023-01-28T10:05:50.920Z,103230.25
2023-01-28T10:08:52.393Z,103239.38
2023-01-28T10:11:44.005Z,103237.91
2023-01-28T10:14:31.834Z,103250.88
2023-01-28T10:17:12.940Z,103260.81
2023-01-28T10:19:53.779Z,103251.91
2023-01-28T10:22:29.479Z,103247.94
2023-01-28T10:25:01.790Z,103246.78
2023-01-28T10:27:30.851Z,103242.00
2023-01-28T10:29:59.896Z,103235.88
2023-01-28T10:32:35.777Z,103230.56
2023-01-28T10:35:03.525Z,103231.56
2023-01-28T10:37:39.277Z,103225.19
2023-01-28T10:40:08.131Z,103217.94
2023-01-28T10:42:39.592Z,103212.09
2023-01-28T10:45:15.838Z,103214.59
2023-01-28T10:47:48.806Z,103206.81
2023-01-28T10:50:20.602Z,103206.94
2023-01-28T10:52:57.751Z,103203.84
2023-01-28T10:55:29.031Z,103201.69
2023-01-28T10:57:55.995Z,103182.72
2023-01-28T11:00:24.467Z,103193.94
2023-01-28T11:02:51.070Z,103199.22
2023-01-28T11:05:21.689Z,103189.63
2023-01-28T11:07:49.931Z,103180.22
2023-01-28T11:10:34.846Z,103175.34
2023-01-28T11:13:04.843Z,103177.69
2023-01-28T11:15:32.341Z,103163.16
2023-01-28T11:18:06.338Z,103156.50
2023-01-28T11:20:38.946Z,103134.19
2023-01-28T11:23:05.492Z,103125.41
2023-01-28T11:25:37.429Z,103118.03
2023-01-28T11:28:08.224Z,103109.69
2023-01-28T11:30:40.189Z,103108.81
2023-01-28T11:33:12.586Z,103100.78
2023-01-28T11:35:39.241Z,103096.72
2023-01-28T11:38:18.705Z,103095.28
2023-01-28T11:40:56.151Z,103103.44
2023-01-28T11:43:28.793Z,103092.31
2023-01-28T11:46:07.260Z,103078.41
2023-01-28T11:48:52.776Z,103084.41
2023-01-28T11:51:43.088Z,103078.22
2023-01-28T11:54:46.951Z,103077.81
2023-01-28T11:57:39.693Z,103085.66
2023-01-28T12:00:44.864Z,103092.47
2023-01-28T12:03:36.150Z,103097.88
2023-01-28T12:06:20.946Z,103105.47
2023-01-28T12:09:06.825Z,103114.19
2023-01-28T12:12:01.031Z,103105.28
2023-01-28T12:14:56.558Z,103108.47
2023-01-28T12:17:46.491Z,103113.88
2023-01-28T12:20:21.893Z,103115.47
2023-01-28T12:23:00.116Z,103108.50
2023-01-28T12:25:26.534Z,103096.94
2023-01-28T12:28:08.777Z,103100.47
2023-01-28T12:30:41.262Z,103122.91
2023-01-28T12:33:12.952Z,103120.75
2023-01-28T12:35:51.260Z,103119.34
2023-01-28T12:38:55.141Z,103120.59
2023-01-28T12:41:28.399Z,103129.66
2023-01-28T12:44:04.244Z,103127.59
2023-01-28T12:46:55.610Z,103115.78
2023-01-28T12:49:29.633Z,103103.69
2023-01-28T12:52:07.161Z,103090.22
2023-01-28T12:54:45.381Z,103091.03
2023-01-28T12:57:19.049Z,103083.72
2023-01-28T12:59:48.470Z,103094.78
2023-01-28T13:02:15.091Z,103090.47
2023-01-28T13:05:08.205Z,103079.69
2023-01-28T13:07:56.636Z,103075.66
2023-01-28T13:10:36.702Z,103068.63
2023-01-28T13:13:05.573Z,103056.75
2023-01-28T13:15:32.628Z,103042.97
2023-01-28T13:18:01.148Z,103036.75
2023-01-28T13:20:47.792Z,103035.94
2023-01-28T13:23:44.772Z,103023.22
2023-01-28T13:26:22.454Z,103025.34
2023-01-28T13:28:52.193Z,103032.63
2023-01-28T13:31:21.466Z,103031.03
2023-01-28T13:33:53.932Z,103028.94
2023-01-28T13:36:34.319Z,103025.41
2023-01-28T13:39:14.506Z,103031.06
2023-01-28T13:41:49.461Z,103032.41
2023-01-28T13:44:25.293Z,103034.00
2023-01-28T13:47:12.672Z,103040.22
2023-01-28T13:49:44.098Z,103039.09
2023-01-28T13:52:10.604Z,103039.88
2023-01-28T13:54:43.875Z,103043.34
2023-01-28T13:57:31.918Z,103038.41
2023-01-28T14:00:46.845Z,103032.78
2023-01-28T14:03:32.172Z,103022.44
2023-01-28T14:06:20.479Z,103022.72
2023-01-28T14:09:10.952Z,103020.59
2023-01-28T14:11:40.345Z,103022.41
2023-01-28T14:14:06.775Z,103033.13
2023-01-28T14:16:55.600Z,103045.47
2023-01-28T14:19:44.547Z,103055.91
2023-01-28T14:22:19.117Z,103066.44
2023-01-28T14:24:46.193Z,103065.72
2023-01-28T14:27:22.971Z,103066.06
2023-01-28T14:30:18.684Z,103061.22
2023-01-28T14:32:48.244Z,103044.00
2023-01-28T14:35:34.945Z,103044.28
2023-01-28T14:38:09.159Z,103032.94
2023-01-28T14:40:39.257Z,103035.09
2023-01-28T14:43:15.898Z,103025.47
2023-01-28T14:46:04.977Z,103032.25
2023-01-28T14:48:49.748Z,103028.22
2023-01-28T14:51:22.354Z,103043.19
2023-01-28T14:54:03.287Z,103038.25
2023-01-28T14:56:44.946Z,103038.88
2023-01-28T14:59:49.733Z,103043.50
2023-01-28T15:02:27.187Z,103037.28
2023-01-28T15:04:54.505Z,103049.47
2023-01-28T15:07:22.525Z,103056.63
2023-01-28T15:10:24.484Z,103060.88
2023-01-28T15:13:17.116Z,103070.34
2023-01-28T15:15:49.821Z,103064.44
2023-01-28T15:18:19.475Z,103070.16
2023-01-28T15:20:52.597Z,103077.03
2023-01-28T15:23:26.240Z,103079.38
2023-01-28T15:25:55.321Z,103086.41
2023-01-28T15:28:33.054Z,103098.06
2023-01-28T15:31:00.164Z,103104.03
2023-01-28T15:33:26.979Z,103097.00
2023-01-28T15:35:55.243Z,103108.88
2023-01-28T15:38:23.561Z,103116.16
2023-01-28T15:40:58.823Z,103110.75
2023-01-28T15:43:33.425Z,103091.06
2023-01-28T15:46:00.666Z,103099.66
2023-01-28T15:48:34.918Z,103088.84
2023-01-28T15:51:07.834Z,103088.84
2023-01-28T15:53:45.193Z,103076.66
2023-01-28T15:56:13.732Z,103071.53
2023-01-28T15:58:41.825Z,103071.53
2023-01-28T16:01:08.579Z,103081.78
2023-01-28T16:03:39.369Z,103080.13
2023-01-28T16:06:10.052Z,103100.56
2023-01-28T16:08:56.625Z,103114.03
2023-01-28T16:11:33.544Z,103117.25
2023-01-28T16:14:00.823Z,103110.25
2023-01-28T16:16:34.444Z,103101.00
2023-01-28T16:19:04.640Z,103103.63
2023-01-28T16:21:38.549Z,103103.63
2023-01-28T16:24:19.862Z,103099.81
2023-01-28T16:26:56.280Z,103094.38
2023-01-28T16:29:22.949Z,103106.44
2023-01-28T16:31:49.438Z,103107.56
2023-01-28T16:34:15.941Z,103103.22
2023-01-28T16:36:42.515Z,103106.19
2023-01-28T16:39:09.007Z,103098.09
2023-01-28T16:41:42.455Z,103101.53
2023-01-28T16:44:16.070Z,103101.47
2023-01-28T16:46:43.377Z,103100.38
2023-01-28T16:49:10.752Z,103109.22
2023-01-28T16:51:41.024Z,103102.06
2023-01-28T16:54:10.076Z,103102.84
2023-01-28T16:56:45.175Z,103099.09
2023-01-28T16:59:12.836Z,103098.22
2023-01-28T17:01:39.939Z,103091.72
2023-01-28T17:04:11.951Z,103100.81
2023-01-28T17:06:44.327Z,103114.50
2023-01-28T17:09:15.165Z,103107.72
2023-01-28T17:11:42.442Z,103119.28
2023-01-28T17:14:10.908Z,103117.88
2023-01-28T17:16:38.479Z,103105.25
2023-01-28T17:19:05.382Z,103109.25
2023-01-28T17:21:32.032Z,103106.78
2023-01-28T17:24:00.897Z,103108.63
2023-01-28T17:26:29.057Z,103101.72
2023-01-28T17:28:56.327Z,103102.78
2023-01-28T17:31:23.573Z,103096.78
2023-01-28T17:33:54.727Z,103097.06
2023-01-28T17:36:21.712Z,103108.63
2023-01-28T17:38:48.679Z,103109.16
2023-01-28T17:41:15.227Z,103111.78
2023-01-28T17:43:41.723Z,103106.94
2023-01-28T17:46:15.189Z,103108.19
2023-01-28T17:48:42.851Z,103120.19
2023-01-28T17:51:09.643Z,103117.75
2023-01-28T17:53:36.196Z,103134.22
2023-01-28T17:56:02.688Z,103133.91
2023-01-28T17:58:29.266Z,103134.09
2023-01-28T18:00:55.775Z,103147.88
2023-01-28T18:03:22.300Z,103135.09
2023-01-28T18:05:59.609Z,103145.56
2023-01-28T18:08:26.393Z,103148.75
2023-01-28T18:10:52.939Z,103157.00
2023-01-28T18:13:19.416Z,103148.31
2023-01-28T18:15:45.884Z,103153.28
2023-01-28T18:18:12.339Z,103156.34
2023-01-28T18:20:38.805Z,103155.63
2023-01-28T18:23:05.293Z,103157.41
2023-01-28T18:25:31.818Z,103162.63
2023-01-28T18:27:58.257Z,103177.06
2023-01-28T18:30:24.726Z,103169.56
2023-01-28T18:32:51.320Z,103168.56
2023-01-28T18:35:18.231Z,103173.09
2023-01-28T18:37:44.899Z,103172.63
2023-01-28T18:40:11.985Z,103179.22
2023-01-28T18:42:38.479Z,103187.56
2023-01-28T18:45:05.556Z,103185.13
2023-01-28T18:47:32.028Z,103182.38
2023-01-28T18:49:58.505Z,103183.69
2023-01-28T18:52:25.042Z,103186.81
2023-01-28T18:54:51.539Z,103187.13
2023-01-28T18:57:19.966Z,103188.25
2023-01-28T18:59:47.264Z,103182.38
2023-01-28T19:02:14.729Z,103180.44
2023-01-28T19:04:41.294Z,103178.47
2023-01-28T19:07:11.826Z,103179.94
2023-01-28T19:09:38.594Z,103180.84
2023-01-28T19:12:05.332Z,103178.13
2023-01-28T19:14:32.024Z,103181.47
2023-01-28T19:16:58.847Z,103175.66
2023-01-28T19:19:25.614Z,103183.50
2023-01-28T19:21:53.466Z,103183.91
2023-01-28T19:24:20.079Z,103184.06
2023-01-28T19:26:46.659Z,103180.56
2023-01-28T19:29:15.792Z,103182.06
2023-01-28T19:31:44.397Z,103182.88
2023-01-28T19:34:11.159Z,103170.56
2023-01-28T19:36:38.120Z,103181.91
2023-01-28T19:39:07.131Z,103173.19
2023-01-28T19:41:33.773Z,103175.63
2023-01-28T19:44:00.248Z,103174.09
2023-01-28T19:46:26.913Z,103172.25
2023-01-28T19:48:54.187Z,103175.44
2023-01-28T19:51:21.500Z,103166.00
2023-01-28T19:53:51.369Z,103173.41
2023-01-28T19:56:19.103Z,103173.00
2023-01-28T19:58:46.425Z,103165.63
2023-01-28T20:01:15.660Z,103169.13
2023-01-28T20:03:42.776Z,103161.38
2023-01-28T20:06:13.078Z,103157.31
2023-01-28T20:08:39.611Z,103155.34
2023-01-28T20:11:10.632Z,103162.03
2023-01-28T20:13:38.799Z,103170.41
2023-01-28T20:16:13.015Z,103171.56
2023-01-28T20:18:39.598Z,103168.88
2023-01-28T20:21:06.288Z,103164.94
2023-01-28T20:23:32.878Z,103164.50
2023-01-28T20:26:00.955Z,103167.81
2023-01-28T20:28:28.206Z,103155.16
2023-01-28T20:30:56.259Z,103152.25
2023-01-28T20:33:23.608Z,103148.75
2023-01-28T20:35:50.129Z,103149.75
2023-01-28T20:38:16.689Z,103150.56
2023-01-28T20:40:43.867Z,103151.44
2023-01-28T20:43:10.367Z,103147.63
2023-01-28T20:45:36.977Z,103137.84
2023-01-28T20:48:03.578Z,103146.69
2023-01-28T20:50:30.051Z,103140.09
2023-01-28T20:52:56.585Z,103142.25
2023-01-28T20:55:23.094Z,103139.72
2023-01-28T20:57:52.248Z,103130.59
2023-01-28T21:00:19.362Z,103134.81
2023-01-28T21:02:46.121Z,103134.34
2023-01-28T21:05:12.713Z,103138.09
2023-01-28T21:07:39.406Z,103131.84
2023-01-28T21:10:06.549Z,103132.13
2023-01-28T21:12:33.112Z,103129.41
2023-01-28T21:14:59.546Z,103130.09
2023-01-28T21:17:26.061Z,103129.19
2023-01-28T21:19:52.608Z,103141.97
2023-01-28T21:22:20.238Z,103133.34
2023-01-28T21:24:48.981Z,103142.56
2023-01-28T21:27:15.659Z,103145.88
2023-01-28T21:29:42.379Z,103141.56
2023-01-28T21:32:09.039Z,103144.25
2023-01-28T21:34:35.591Z,103137.09
2023-01-28T21:37:02.093Z,103134.13
2023-01-28T21:39:28.578Z,103146.69
2023-01-28T21:41:54.998Z,103148.09
2023-01-28T21:44:21.907Z,103145.56
2023-01-28T21:46:48.353Z,103138.88
2023-01-28T21:49:14.846Z,103141.09
2023-01-28T21:51:47.366Z,103138.41
2023-01-28T21:54:17.489Z,103131.31
2023-01-28T21:56:45.419Z,103136.19
2023-01-28T21:59:28.242Z,103135.38
2023-01-28T22:02:02.689Z,103140.59
2023-01-28T22:04:37.480Z,103133.59
2023-01-28T22:07:07.122Z,103135.72
2023-01-28T22:09:34.595Z,103141.25
2023-01-28T22:12:03.602Z,103130.66
2023-01-28T22:14:30.200Z,103136.44
2023-01-28T22:16:56.697Z,103138.56
2023-01-28T22:19:23.229Z,103146.63
2023-01-28T22:21:49.753Z,103136.78
2023-01-28T22:24:25.214Z,103144.16
2023-01-28T22:26:53.824Z,103133.47
2023-01-28T22:29:22.033Z,103138.78
2023-01-28T22:31:50.830Z,103132.38
2023-01-28T22:34:19.119Z,103130.00
2023-01-28T22:36:46.469Z,103127.41
2023-01-28T22:39:15.199Z,103121.94
2023-01-28T22:41:43.504Z,103111.31
2023-01-28T22:44:10.279Z,103121.00
2023-01-28T22:46:37.488Z,103111.56
2023-01-28T22:49:05.253Z,103102.53
2023-01-28T22:51:34.418Z,103099.09
2023-01-28T22:54:01.156Z,103098.78
2023-01-28T22:56:28.991Z,103089.03
2023-01-28T22:58:57.292Z,103099.59
2023-01-28T23:01:24.316Z,103082.84
2023-01-28T23:03:51.951Z,103095.72
2023-01-28T23:06:20.831Z,103083.91
2023-01-28T23:08:47.937Z,103092.34
2023-01-28T23:11:15.982Z,103091.22
2023-01-28T23:14:02.433Z,103088.47
2023-01-28T23:16:49.373Z,103091.97
2023-01-28T23:19:35.471Z,103105.88
2023-01-28T23:22:20.401Z,103085.69
2023-01-28T23:24:46.866Z,103092.28
2023-01-28T23:27:13.322Z,103096.84
2023-01-28T23:29:39.848Z,103082.69
2023-01-28T23:32:09.859Z,103088.63
2023-01-28T23:34:41.443Z,103089.03
2023-01-28T23:37:09.380Z,103090.72
2023-01-28T23:39:36.145Z,103091.22
2023-01-28T23:42:17.057Z,103087.13
2023-01-28T23:44:44.118Z,103090.22
2023-01-28T23:47:11.395Z,103081.78
2023-01-28T23:49:38.839Z,103068.50
2023-01-28T23:52:06.353Z,103068.03
2023-01-28T23:54:33.295Z,103069.66
2023-01-28T23:57:00.629Z,103071.94
2023-01-28T23:59:27.424Z,103070.56
